sensor_id;sensor_type;location;lat;lon;timestamp;temperature;humidity
23550;DHT22;11953;49.010;8.608;2022-09-09T00:00:14;16.00;99.90
23550;DHT22;11953;49.010;8.608;2022-09-09T00:03:05;16.10;99.90
23550;DHT22;11953;49.010;8.608;2022-09-09T00:06:02;16.00;99.90
23550;DHT22;11953;49.010;8.608;2022-09-09T00:09:00;16.00;99.90
23550;DHT22;11953;49.010;8.608;2022-09-09T00:11:50;16.10;99.90
23550;DHT22;11953;49.010;8.608;2022-09-09T00:14:45;16.20;99.90
23550;DHT22;11953;49.010;8.608;2022-09-09T00:17:36;16.20;99.90
23550;DHT22;11953;49.010;8.608;2022-09-09T00:20:29;16.10;99.90
23550;DHT22;11953;49.010;8.608;2022-09-09T00:23:23;15.80;99.90
23550;DHT22;11953;49.010;8.608;2022-09-09T00:26:16;15.60;99.90
23550;DHT22;11953;49.010;8.608;2022-09-09T00:29:14;15.60;99.90
23550;DHT22;11953;49.010;8.608;2022-09-09T00:32:11;15.70;99.90
23550;DHT22;11953;49.010;8.608;2022-09-09T00:35:03;15.80;99.90
23550;DHT22;11953;49.010;8.608;2022-09-09T00:37:53;16.00;99.90
23550;DHT22;11953;49.010;8.608;2022-09-09T00:40:48;16.10;99.90
23550;DHT22;11953;49.010;8.608;2022-09-09T00:43:37;16.20;99.90
23550;DHT22;11953;49.010;8.608;2022-09-09T00:49:39;16.50;99.90
23550;DHT22;11953;49.010;8.608;2022-09-09T00:52:38;16.60;99.90
23550;DHT22;11953;49.010;8.608;2022-09-09T00:55:31;16.70;99.90
23550;DHT22;11953;49.010;8.608;2022-09-09T00:58:21;16.70;99.90
23550;DHT22;11953;49.010;8.608;2022-09-09T01:01:10;16.70;99.90
23550;DHT22;11953;49.010;8.608;2022-09-09T01:03:58;16.70;99.90
23550;DHT22;11953;49.010;8.608;2022-09-09T01:06:48;16.70;99.90
23550;DHT22;11953;49.010;8.608;2022-09-09T01:09:45;16.60;99.90
23550;DHT22;11953;49.010;8.608;2022-09-09T01:12:40;16.50;99.90
23550;DHT22;11953;49.010;8.608;2022-09-09T01:15:34;16.60;99.90
23550;DHT22;11953;49.010;8.608;2022-09-09T01:18:23;16.60;99.90
23550;DHT22;11953;49.010;8.608;2022-09-09T01:21:20;16.70;99.90
23550;DHT22;11953;49.010;8.608;2022-09-09T01:24:22;16.80;99.90
23550;DHT22;11953;49.010;8.608;2022-09-09T01:27:22;16.80;99.90
23550;DHT22;11953;49.010;8.608;2022-09-09T01:30:11;16.90;99.90
23550;DHT22;11953;49.010;8.608;2022-09-09T01:32:59;16.90;99.90
23550;DHT22;11953;49.010;8.608;2022-09-09T01:35:51;16.90;99.90
23550;DHT22;11953;49.010;8.608;2022-09-09T01:38:42;17.00;99.90
23550;DHT22;11953;49.010;8.608;2022-09-09T01:41:29;17.20;99.90
23550;DHT22;11953;49.010;8.608;2022-09-09T01:44:24;17.30;99.90
23550;DHT22;11953;49.010;8.608;2022-09-09T01:47:11;17.40;99.90
23550;DHT22;11953;49.010;8.608;2022-09-09T01:50:21;17.50;99.90
23550;DHT22;11953;49.010;8.608;2022-09-09T01:53:08;17.50;99.90
23550;DHT22;11953;49.010;8.608;2022-09-09T01:56:07;17.60;99.90
23550;DHT22;11953;49.010;8.608;2022-09-09T01:59:07;17.60;99.90
23550;DHT22;11953;49.010;8.608;2022-09-09T02:02:09;17.50;99.90
23550;DHT22;11953;49.010;8.608;2022-09-09T02:05:08;17.50;99.90
23550;DHT22;11953;49.010;8.608;2022-09-09T02:08:03;17.50;99.90
23550;DHT22;11953;49.010;8.608;2022-09-09T02:11:07;17.50;99.90
23550;DHT22;11953;49.010;8.608;2022-09-09T02:14:10;17.40;99.90
23550;DHT22;11953;49.010;8.608;2022-09-09T02:17:07;17.40;99.90
23550;DHT22;11953;49.010;8.608;2022-09-09T02:20:14;17.40;99.90
23550;DHT22;11953;49.010;8.608;2022-09-09T02:23:07;17.50;99.90
23550;DHT22;11953;49.010;8.608;2022-09-09T02:25:56;17.50;99.90
23550;DHT22;11953;49.010;8.608;2022-09-09T02:28:44;17.50;99.90
23550;DHT22;11953;49.010;8.608;2022-09-09T02:31:33;17.50;99.90
23550;DHT22;11953;49.010;8.608;2022-09-09T02:34:28;17.60;99.90
23550;DHT22;11953;49.010;8.608;2022-09-09T02:37:18;17.50;99.90
23550;DHT22;11953;49.010;8.608;2022-09-09T02:40:11;17.50;99.90
23550;DHT22;11953;49.010;8.608;2022-09-09T02:43:02;17.40;99.90
23550;DHT22;11953;49.010;8.608;2022-09-09T02:45:58;17.40;99.90
23550;DHT22;11953;49.010;8.608;2022-09-09T02:48:55;17.50;99.90
23550;DHT22;11953;49.010;8.608;2022-09-09T02:51:53;17.50;99.90
23550;DHT22;11953;49.010;8.608;2022-09-09T02:54:42;17.40;99.90
23550;DHT22;11953;49.010;8.608;2022-09-09T02:57:31;17.50;99.90
23550;DHT22;11953;49.010;8.608;2022-09-09T03:00:23;17.50;99.90
23550;DHT22;11953;49.010;8.608;2022-09-09T03:03:12;17.50;99.90
23550;DHT22;11953;49.010;8.608;2022-09-09T03:05:59;17.50;99.90
23550;DHT22;11953;49.010;8.608;2022-09-09T03:08:47;17.40;99.90
23550;DHT22;11953;49.010;8.608;2022-09-09T03:11:39;17.40;99.90
23550;DHT22;11953;49.010;8.608;2022-09-09T03:14:26;17.40;99.90
23550;DHT22;11953;49.010;8.608;2022-09-09T03:17:13;17.30;99.90
23550;DHT22;11953;49.010;8.608;2022-09-09T03:20:07;17.40;99.90
23550;DHT22;11953;49.010;8.608;2022-09-09T03:22:56;17.30;99.90
23550;DHT22;11953;49.010;8.608;2022-09-09T03:25:48;17.20;99.90
23550;DHT22;11953;49.010;8.608;2022-09-09T03:28:38;17.20;99.90
23550;DHT22;11953;49.010;8.608;2022-09-09T03:31:24;17.10;99.90
23550;DHT22;11953;49.010;8.608;2022-09-09T03:34:11;17.10;99.90
23550;DHT22;11953;49.010;8.608;2022-09-09T03:36:58;17.10;99.90
23550;DHT22;11953;49.010;8.608;2022-09-09T03:39:46;17.10;99.90
23550;DHT22;11953;49.010;8.608;2022-09-09T03:42:35;17.10;99.90
23550;DHT22;11953;49.010;8.608;2022-09-09T03:45:22;17.10;99.90
23550;DHT22;11953;49.010;8.608;2022-09-09T03:48:09;17.10;99.90
23550;DHT22;11953;49.010;8.608;2022-09-09T03:50:57;17.10;99.90
23550;DHT22;11953;49.010;8.608;2022-09-09T03:53:48;17.10;99.90
23550;DHT22;11953;49.010;8.608;2022-09-09T03:56:35;17.10;99.90
23550;DHT22;11953;49.010;8.608;2022-09-09T03:59:23;17.10;99.90
23550;DHT22;11953;49.010;8.608;2022-09-09T04:02:10;17.10;99.90
23550;DHT22;11953;49.010;8.608;2022-09-09T04:04:57;17.10;99.90
23550;DHT22;11953;49.010;8.608;2022-09-09T04:07:45;17.00;99.90
23550;DHT22;11953;49.010;8.608;2022-09-09T04:10:32;17.00;99.90
23550;DHT22;11953;49.010;8.608;2022-09-09T04:13:18;17.00;99.90
23550;DHT22;11953;49.010;8.608;2022-09-09T04:16:08;16.90;99.90
23550;DHT22;11953;49.010;8.608;2022-09-09T04:18:56;16.90;99.90
23550;DHT22;11953;49.010;8.608;2022-09-09T04:21:43;16.80;99.90
23550;DHT22;11953;49.010;8.608;2022-09-09T04:24:30;16.60;99.90
23550;DHT22;11953;49.010;8.608;2022-09-09T04:27:18;16.60;99.90
23550;DHT22;11953;49.010;8.608;2022-09-09T04:30:06;16.60;99.90
23550;DHT22;11953;49.010;8.608;2022-09-09T04:32:56;16.60;99.90
23550;DHT22;11953;49.010;8.608;2022-09-09T04:35:45;16.70;99.90
23550;DHT22;11953;49.010;8.608;2022-09-09T04:38:33;16.70;99.90
23550;DHT22;11953;49.010;8.608;2022-09-09T04:41:21;16.70;99.90
23550;DHT22;11953;49.010;8.608;2022-09-09T04:44:11;16.70;99.90
23550;DHT22;11953;49.010;8.608;2022-09-09T04:46:58;16.70;99.90
23550;DHT22;11953;49.010;8.608;2022-09-09T04:49:46;16.70;99.90
23550;DHT22;11953;49.010;8.608;2022-09-09T04:52:34;16.80;99.90
23550;DHT22;11953;49.010;8.608;2022-09-09T04:55:20;16.80;99.90
23550;DHT22;11953;49.010;8.608;2022-09-09T04:58:08;16.70;99.90
23550;DHT22;11953;49.010;8.608;2022-09-09T05:00:54;16.80;99.90
23550;DHT22;11953;49.010;8.608;2022-09-09T05:03:41;16.80;99.90
23550;DHT22;11953;49.010;8.608;2022-09-09T05:06:33;16.90;99.90
23550;DHT22;11953;49.010;8.608;2022-09-09T05:09:22;16.90;99.90
23550;DHT22;11953;49.010;8.608;2022-09-09T05:12:09;16.90;99.90
23550;DHT22;11953;49.010;8.608;2022-09-09T05:15:01;17.00;99.90
23550;DHT22;11953;49.010;8.608;2022-09-09T05:17:48;17.00;99.90
23550;DHT22;11953;49.010;8.608;2022-09-09T05:20:35;17.10;99.90
23550;DHT22;11953;49.010;8.608;2022-09-09T05:23:23;17.20;99.90
23550;DHT22;11953;49.010;8.608;2022-09-09T05:26:13;17.20;99.90
23550;DHT22;11953;49.010;8.608;2022-09-09T05:29:04;17.30;99.90
23550;DHT22;11953;49.010;8.608;2022-09-09T05:31:51;17.40;99.90
23550;DHT22;11953;49.010;8.608;2022-09-09T05:34:39;17.50;99.90
23550;DHT22;11953;49.010;8.608;2022-09-09T05:37:26;17.60;99.90
23550;DHT22;11953;49.010;8.608;2022-09-09T05:40:15;17.70;99.90
23550;DHT22;11953;49.010;8.608;2022-09-09T05:43:02;17.80;99.90
23550;DHT22;11953;49.010;8.608;2022-09-09T05:45:48;17.80;99.90
23550;DHT22;11953;49.010;8.608;2022-09-09T05:48:37;17.80;99.90
23550;DHT22;11953;49.010;8.608;2022-09-09T05:51:26;17.80;99.90
23550;DHT22;11953;49.010;8.608;2022-09-09T05:54:15;17.90;99.90
23550;DHT22;11953;49.010;8.608;2022-09-09T05:57:08;18.00;99.90
23550;DHT22;11953;49.010;8.608;2022-09-09T05:59:56;18.10;99.90
23550;DHT22;11953;49.010;8.608;2022-09-09T06:02:42;18.20;99.90
23550;DHT22;11953;49.010;8.608;2022-09-09T06:05:31;18.30;99.90
23550;DHT22;11953;49.010;8.608;2022-09-09T06:08:20;18.60;99.90
23550;DHT22;11953;49.010;8.608;2022-09-09T06:11:09;19.30;99.90
23550;DHT22;11953;49.010;8.608;2022-09-09T06:13:57;20.40;99.90
23550;DHT22;11953;49.010;8.608;2022-09-09T06:16:45;21.30;99.90
23550;DHT22;11953;49.010;8.608;2022-09-09T06:19:37;22.10;99.90
23550;DHT22;11953;49.010;8.608;2022-09-09T06:22:25;22.80;99.90
23550;DHT22;11953;49.010;8.608;2022-09-09T06:25:12;23.30;99.90
23550;DHT22;11953;49.010;8.608;2022-09-09T06:27:58;23.50;99.90
23550;DHT22;11953;49.010;8.608;2022-09-09T06:30:47;22.80;99.90
23550;DHT22;11953;49.010;8.608;2022-09-09T06:33:36;22.00;99.90
23550;DHT22;11953;49.010;8.608;2022-09-09T06:36:28;21.30;99.90
23550;DHT22;11953;49.010;8.608;2022-09-09T06:39:16;21.00;99.90
23550;DHT22;11953;49.010;8.608;2022-09-09T06:42:03;20.70;99.90
23550;DHT22;11953;49.010;8.608;2022-09-09T06:45:10;20.40;99.90
23550;DHT22;11953;49.010;8.608;2022-09-09T06:48:09;20.20;99.90
23550;DHT22;11953;49.010;8.608;2022-09-09T06:51:03;20.10;99.90
23550;DHT22;11953;49.010;8.608;2022-09-09T06:53:52;19.90;99.90
23550;DHT22;11953;49.010;8.608;2022-09-09T06:56:41;19.90;99.90
23550;DHT22;11953;49.010;8.608;2022-09-09T06:59:35;20.20;99.90
23550;DHT22;11953;49.010;8.608;2022-09-09T07:02:22;20.40;99.90
23550;DHT22;11953;49.010;8.608;2022-09-09T07:05:10;20.50;99.90
23550;DHT22;11953;49.010;8.608;2022-09-09T07:07:59;20.50;99.90
23550;DHT22;11953;49.010;8.608;2022-09-09T07:10:47;20.60;99.90
23550;DHT22;11953;49.010;8.608;2022-09-09T07:13:34;21.80;99.90
23550;DHT22;11953;49.010;8.608;2022-09-09T07:16:22;22.60;99.90
23550;DHT22;11953;49.010;8.608;2022-09-09T07:19:10;22.60;99.90
23550;DHT22;11953;49.010;8.608;2022-09-09T07:21:58;23.00;99.90
23550;DHT22;11953;49.010;8.608;2022-09-09T07:24:46;24.00;99.90
23550;DHT22;11953;49.010;8.608;2022-09-09T07:27:34;25.00;99.90
23550;DHT22;11953;49.010;8.608;2022-09-09T07:30:22;25.80;99.90
23550;DHT22;11953;49.010;8.608;2022-09-09T07:33:13;26.50;99.90
23550;DHT22;11953;49.010;8.608;2022-09-09T07:36:05;25.90;99.90
23550;DHT22;11953;49.010;8.608;2022-09-09T07:38:54;24.90;99.90
23550;DHT22;11953;49.010;8.608;2022-09-09T07:41:43;24.10;99.90
23550;DHT22;11953;49.010;8.608;2022-09-09T07:44:31;23.20;99.90
23550;DHT22;11953;49.010;8.608;2022-09-09T07:47:24;22.50;99.90
23550;DHT22;11953;49.010;8.608;2022-09-09T07:50:12;21.80;99.90
23550;DHT22;11953;49.010;8.608;2022-09-09T07:52:59;21.70;99.90
23550;DHT22;11953;49.010;8.608;2022-09-09T07:55:47;22.50;99.90
23550;DHT22;11953;49.010;8.608;2022-09-09T07:58:34;23.70;99.90
23550;DHT22;11953;49.010;8.608;2022-09-09T08:01:26;24.90;99.90
23550;DHT22;11953;49.010;8.608;2022-09-09T08:04:16;25.60;99.90
23550;DHT22;11953;49.010;8.608;2022-09-09T08:07:04;26.20;99.90
23550;DHT22;11953;49.010;8.608;2022-09-09T08:09:58;26.90;99.90
23550;DHT22;11953;49.010;8.608;2022-09-09T08:12:49;27.00;99.90
23550;DHT22;11953;49.010;8.608;2022-09-09T08:16:07;26.20;99.90
23550;DHT22;11953;49.010;8.608;2022-09-09T08:18:54;26.30;99.90
23550;DHT22;11953;49.010;8.608;2022-09-09T08:21:43;26.70;99.90
23550;DHT22;11953;49.010;8.608;2022-09-09T08:24:30;26.70;99.10
23550;DHT22;11953;49.010;8.608;2022-09-09T08:27:17;26.90;99.50
23550;DHT22;11953;49.010;8.608;2022-09-09T08:30:06;27.30;99.10
23550;DHT22;11953;49.010;8.608;2022-09-09T08:32:53;27.30;98.30
23550;DHT22;11953;49.010;8.608;2022-09-09T08:35:50;27.90;98.20
23550;DHT22;11953;49.010;8.608;2022-09-09T08:38:37;27.80;97.60
23550;DHT22;11953;49.010;8.608;2022-09-09T08:41:40;28.10;96.80
23550;DHT22;11953;49.010;8.608;2022-09-09T08:44:36;27.20;97.70
23550;DHT22;11953;49.010;8.608;2022-09-09T08:47:41;26.20;98.40
23550;DHT22;11953;49.010;8.608;2022-09-09T08:50:35;24.40;99.90
23550;DHT22;11953;49.010;8.608;2022-09-09T08:53:38;22.60;99.90
23550;DHT22;11953;49.010;8.608;2022-09-09T08:56:31;21.50;99.90
23550;DHT22;11953;49.010;8.608;2022-09-09T08:59:20;21.20;99.90
23550;DHT22;11953;49.010;8.608;2022-09-09T09:02:15;21.00;99.90
23550;DHT22;11953;49.010;8.608;2022-09-09T09:05:18;21.10;99.90
23550;DHT22;11953;49.010;8.608;2022-09-09T09:08:15;21.90;99.90
23550;DHT22;11953;49.010;8.608;2022-09-09T09:11:05;23.40;99.90
23550;DHT22;11953;49.010;8.608;2022-09-09T09:13:56;24.60;99.90
23550;DHT22;11953;49.010;8.608;2022-09-09T09:16:50;25.00;99.90
23550;DHT22;11953;49.010;8.608;2022-09-09T09:19:40;25.20;99.90
23550;DHT22;11953;49.010;8.608;2022-09-09T09:22:36;25.20;99.90
23550;DHT22;11953;49.010;8.608;2022-09-09T09:25:29;25.10;99.90
23550;DHT22;11953;49.010;8.608;2022-09-09T09:28:19;25.50;99.90
23550;DHT22;11953;49.010;8.608;2022-09-09T09:31:12;25.30;99.90
23550;DHT22;11953;49.010;8.608;2022-09-09T09:34:04;24.80;99.90
23550;DHT22;11953;49.010;8.608;2022-09-09T09:36:53;24.30;99.90
23550;DHT22;11953;49.010;8.608;2022-09-09T09:39:43;23.80;99.90
23550;DHT22;11953;49.010;8.608;2022-09-09T09:42:51;23.90;99.90
23550;DHT22;11953;49.010;8.608;2022-09-09T09:45:42;23.50;99.90
23550;DHT22;11953;49.010;8.608;2022-09-09T09:48:56;23.30;99.90
23550;DHT22;11953;49.010;8.608;2022-09-09T09:51:44;23.30;99.90
23550;DHT22;11953;49.010;8.608;2022-09-09T09:54:34;23.80;99.90
23550;DHT22;11953;49.010;8.608;2022-09-09T09:57:27;24.10;99.90
23550;DHT22;11953;49.010;8.608;2022-09-09T10:00:19;24.70;99.90
23550;DHT22;11953;49.010;8.608;2022-09-09T10:03:22;25.40;99.90
23550;DHT22;11953;49.010;8.608;2022-09-09T10:06:11;26.20;99.90
23550;DHT22;11953;49.010;8.608;2022-09-09T10:08:57;26.60;99.90
23550;DHT22;11953;49.010;8.608;2022-09-09T10:11:50;26.70;99.90
23550;DHT22;11953;49.010;8.608;2022-09-09T10:14:48;26.60;99.90
23550;DHT22;11953;49.010;8.608;2022-09-09T10:17:40;26.40;99.90
23550;DHT22;11953;49.010;8.608;2022-09-09T10:20:34;26.40;99.90
23550;DHT22;11953;49.010;8.608;2022-09-09T10:23:42;26.40;99.90
23550;DHT22;11953;49.010;8.608;2022-09-09T10:26:38;25.50;99.90
23550;DHT22;11953;49.010;8.608;2022-09-09T10:29:37;25.30;99.90
23550;DHT22;11953;49.010;8.608;2022-09-09T10:32:37;25.20;99.90
23550;DHT22;11953;49.010;8.608;2022-09-09T10:35:29;24.80;99.90
23550;DHT22;11953;49.010;8.608;2022-09-09T10:38:17;24.20;99.90
23550;DHT22;11953;49.010;8.608;2022-09-09T10:41:14;23.60;99.90
23550;DHT22;11953;49.010;8.608;2022-09-09T10:44:22;23.40;99.90
23550;DHT22;11953;49.010;8.608;2022-09-09T10:47:25;23.40;99.90
23550;DHT22;11953;49.010;8.608;2022-09-09T10:50:32;23.30;99.90
23550;DHT22;11953;49.010;8.608;2022-09-09T10:53:54;23.10;99.90
23550;DHT22;11953;49.010;8.608;2022-09-09T10:56:49;22.80;99.90
23550;DHT22;11953;49.010;8.608;2022-09-09T10:59:39;22.80;99.90
23550;DHT22;11953;49.010;8.608;2022-09-09T11:02:28;22.90;99.90
23550;DHT22;11953;49.010;8.608;2022-09-09T11:05:17;22.70;99.90
23550;DHT22;11953;49.010;8.608;2022-09-09T11:08:12;23.00;99.90
23550;DHT22;11953;49.010;8.608;2022-09-09T11:11:03;23.10;99.90
23550;DHT22;11953;49.010;8.608;2022-09-09T11:13:55;23.30;99.90
23550;DHT22;11953;49.010;8.608;2022-09-09T11:16:48;23.40;99.90
23550;DHT22;11953;49.010;8.608;2022-09-09T11:19:39;23.30;99.90
23550;DHT22;11953;49.010;8.608;2022-09-09T11:22:29;22.90;99.90
23550;DHT22;11953;49.010;8.608;2022-09-09T11:25:22;23.20;99.90
23550;DHT22;11953;49.010;8.608;2022-09-09T11:28:24;23.00;99.90
23550;DHT22;11953;49.010;8.608;2022-09-09T11:31:27;22.90;99.90
23550;DHT22;11953;49.010;8.608;2022-09-09T11:34:27;22.60;99.90
23550;DHT22;11953;49.010;8.608;2022-09-09T11:37:40;22.60;99.90
23550;DHT22;11953;49.010;8.608;2022-09-09T11:40:32;22.70;99.90
23550;DHT22;11953;49.010;8.608;2022-09-09T11:43:24;22.70;99.90
23550;DHT22;11953;49.010;8.608;2022-09-09T11:46:13;23.10;99.90
23550;DHT22;11953;49.010;8.608;2022-09-09T11:49:05;23.50;99.90
23550;DHT22;11953;49.010;8.608;2022-09-09T11:51:52;23.70;99.90
23550;DHT22;11953;49.010;8.608;2022-09-09T11:54:46;23.80;99.90
23550;DHT22;11953;49.010;8.608;2022-09-09T11:57:36;24.20;99.90
23550;DHT22;11953;49.010;8.608;2022-09-09T12:00:34;24.80;99.90
23550;DHT22;11953;49.010;8.608;2022-09-09T12:03:41;25.20;99.90
23550;DHT22;11953;49.010;8.608;2022-09-09T12:06:30;25.30;99.90
23550;DHT22;11953;49.010;8.608;2022-09-09T12:09:22;24.50;99.90
23550;DHT22;11953;49.010;8.608;2022-09-09T12:12:24;24.60;99.90
23550;DHT22;11953;49.010;8.608;2022-09-09T12:15:23;24.60;99.90
23550;DHT22;11953;49.010;8.608;2022-09-09T12:18:15;25.20;99.90
23550;DHT22;11953;49.010;8.608;2022-09-09T12:21:11;25.40;99.90
23550;DHT22;11953;49.010;8.608;2022-09-09T12:24:05;25.50;99.90
23550;DHT22;11953;49.010;8.608;2022-09-09T12:26:59;25.20;99.90
23550;DHT22;11953;49.010;8.608;2022-09-09T12:29:52;25.30;99.90
23550;DHT22;11953;49.010;8.608;2022-09-09T12:32:42;25.60;98.90
23550;DHT22;11953;49.010;8.608;2022-09-09T12:35:30;25.00;99.20
23550;DHT22;11953;49.010;8.608;2022-09-09T12:38:22;25.10;99.70
23550;DHT22;11953;49.010;8.608;2022-09-09T12:41:19;25.20;99.90
23550;DHT22;11953;49.010;8.608;2022-09-09T12:44:09;25.40;99.90
23550;DHT22;11953;49.010;8.608;2022-09-09T12:46:59;25.00;99.10
23550;DHT22;11953;49.010;8.608;2022-09-09T12:49:49;24.70;99.10
23550;DHT22;11953;49.010;8.608;2022-09-09T12:52:36;24.30;99.50
23550;DHT22;11953;49.010;8.608;2022-09-09T12:55:27;24.10;99.90
23550;DHT22;11953;49.010;8.608;2022-09-09T12:58:17;24.20;99.90
23550;DHT22;11953;49.010;8.608;2022-09-09T13:01:05;24.10;99.90
23550;DHT22;11953;49.010;8.608;2022-09-09T13:03:54;23.90;99.90
23550;DHT22;11953;49.010;8.608;2022-09-09T13:06:42;23.40;99.90
23550;DHT22;11953;49.010;8.608;2022-09-09T13:09:28;23.00;99.90
23550;DHT22;11953;49.010;8.608;2022-09-09T13:12:17;22.50;99.90
23550;DHT22;11953;49.010;8.608;2022-09-09T13:15:12;22.20;99.90
23550;DHT22;11953;49.010;8.608;2022-09-09T13:18:05;22.10;99.90
23550;DHT22;11953;49.010;8.608;2022-09-09T13:20:53;22.10;99.90
23550;DHT22;11953;49.010;8.608;2022-09-09T13:23:49;22.20;99.90
23550;DHT22;11953;49.010;8.608;2022-09-09T13:26:37;22.40;99.90
23550;DHT22;11953;49.010;8.608;2022-09-09T13:29:24;22.80;99.90
23550;DHT22;11953;49.010;8.608;2022-09-09T13:32:16;23.10;99.90
23550;DHT22;11953;49.010;8.608;2022-09-09T13:35:03;22.70;99.90
23550;DHT22;11953;49.010;8.608;2022-09-09T13:37:51;22.50;99.90
23550;DHT22;11953;49.010;8.608;2022-09-09T13:40:40;22.40;99.90
23550;DHT22;11953;49.010;8.608;2022-09-09T13:43:27;22.30;99.90
23550;DHT22;11953;49.010;8.608;2022-09-09T13:46:28;22.10;99.90
23550;DHT22;11953;49.010;8.608;2022-09-09T13:49:21;22.10;99.90
23550;DHT22;11953;49.010;8.608;2022-09-09T13:52:10;22.20;99.90
23550;DHT22;11953;49.010;8.608;2022-09-09T13:54:58;22.40;99.90
23550;DHT22;11953;49.010;8.608;2022-09-09T13:57:53;22.60;99.90
23550;DHT22;11953;49.010;8.608;2022-09-09T14:00:40;22.70;99.90
23550;DHT22;11953;49.010;8.608;2022-09-09T14:03:28;22.80;99.90
23550;DHT22;11953;49.010;8.608;2022-09-09T14:06:15;22.90;99.90
23550;DHT22;11953;49.010;8.608;2022-09-09T14:09:03;23.10;99.90
23550;DHT22;11953;49.010;8.608;2022-09-09T14:11:50;23.10;99.90
23550;DHT22;11953;49.010;8.608;2022-09-09T14:14:37;23.00;99.90
23550;DHT22;11953;49.010;8.608;2022-09-09T14:17:24;23.00;99.90
23550;DHT22;11953;49.010;8.608;2022-09-09T14:20:14;23.10;99.90
23550;DHT22;11953;49.010;8.608;2022-09-09T14:23:02;23.00;99.90
23550;DHT22;11953;49.010;8.608;2022-09-09T14:25:50;23.00;99.90
23550;DHT22;11953;49.010;8.608;2022-09-09T14:28:37;23.00;99.90
23550;DHT22;11953;49.010;8.608;2022-09-09T14:31:42;23.00;99.90
23550;DHT22;11953;49.010;8.608;2022-09-09T14:34:29;23.00;99.90
23550;DHT22;11953;49.010;8.608;2022-09-09T14:37:17;23.10;99.90
23550;DHT22;11953;49.010;8.608;2022-09-09T14:40:06;23.10;99.90
23550;DHT22;11953;49.010;8.608;2022-09-09T14:42:54;23.10;99.90
23550;DHT22;11953;49.010;8.608;2022-09-09T14:45:41;23.10;99.90
23550;DHT22;11953;49.010;8.608;2022-09-09T14:48:30;22.90;99.90
23550;DHT22;11953;49.010;8.608;2022-09-09T14:51:22;22.70;99.90
23550;DHT22;11953;49.010;8.608;2022-09-09T14:54:09;22.60;99.90
23550;DHT22;11953;49.010;8.608;2022-09-09T14:56:56;22.40;99.90
23550;DHT22;11953;49.010;8.608;2022-09-09T14:59:43;22.20;99.90
23550;DHT22;11953;49.010;8.608;2022-09-09T15:02:30;22.00;99.90
23550;DHT22;11953;49.010;8.608;2022-09-09T15:05:18;21.90;99.90
23550;DHT22;11953;49.010;8.608;2022-09-09T15:08:04;21.90;99.90
23550;DHT22;11953;49.010;8.608;2022-09-09T15:10:58;21.70;99.90
23550;DHT22;11953;49.010;8.608;2022-09-09T15:13:44;21.50;99.90
23550;DHT22;11953;49.010;8.608;2022-09-09T15:16:32;21.30;99.90
23550;DHT22;11953;49.010;8.608;2022-09-09T15:19:19;21.10;99.90
23550;DHT22;11953;49.010;8.608;2022-09-09T15:22:06;20.90;99.90
23550;DHT22;11953;49.010;8.608;2022-09-09T15:24:53;20.70;99.90
23550;DHT22;11953;49.010;8.608;2022-09-09T15:27:39;20.70;99.90
23550;DHT22;11953;49.010;8.608;2022-09-09T15:30:26;20.80;99.90
23550;DHT22;11953;49.010;8.608;2022-09-09T15:33:12;20.90;99.90
23550;DHT22;11953;49.010;8.608;2022-09-09T15:35:59;20.90;99.90
23550;DHT22;11953;49.010;8.608;2022-09-09T15:38:47;20.80;99.90
23550;DHT22;11953;49.010;8.608;2022-09-09T15:41:33;20.90;99.90
23550;DHT22;11953;49.010;8.608;2022-09-09T15:44:21;20.80;99.90
23550;DHT22;11953;49.010;8.608;2022-09-09T15:47:11;20.80;99.90
23550;DHT22;11953;49.010;8.608;2022-09-09T15:49:58;20.80;99.90
23550;DHT22;11953;49.010;8.608;2022-09-09T15:52:44;20.90;99.90
23550;DHT22;11953;49.010;8.608;2022-09-09T15:55:32;20.90;99.90
23550;DHT22;11953;49.010;8.608;2022-09-09T15:58:19;20.90;99.90
23550;DHT22;11953;49.010;8.608;2022-09-09T16:01:06;20.60;99.90
23550;DHT22;11953;49.010;8.608;2022-09-09T16:03:54;20.50;99.90
23550;DHT22;11953;49.010;8.608;2022-09-09T16:06:41;20.30;99.90
23550;DHT22;11953;49.010;8.608;2022-09-09T16:09:28;20.20;99.90
23550;DHT22;11953;49.010;8.608;2022-09-09T16:12:16;20.10;99.90
23550;DHT22;11953;49.010;8.608;2022-09-09T16:15:04;20.00;99.90
23550;DHT22;11953;49.010;8.608;2022-09-09T16:17:53;19.80;99.90
23550;DHT22;11953;49.010;8.608;2022-09-09T16:20:39;19.80;99.90
23550;DHT22;11953;49.010;8.608;2022-09-09T16:23:26;19.80;99.90
23550;DHT22;11953;49.010;8.608;2022-09-09T16:26:14;19.50;99.90
23550;DHT22;11953;49.010;8.608;2022-09-09T16:29:02;19.50;99.90
23550;DHT22;11953;49.010;8.608;2022-09-09T16:31:50;19.40;99.90
23550;DHT22;11953;49.010;8.608;2022-09-09T16:34:37;19.40;99.90
23550;DHT22;11953;49.010;8.608;2022-09-09T16:37:23;19.30;99.90
23550;DHT22;11953;49.010;8.608;2022-09-09T16:40:10;19.30;99.90
23550;DHT22;11953;49.010;8.608;2022-09-09T16:42:56;19.20;99.90
23550;DHT22;11953;49.010;8.608;2022-09-09T16:45:45;19.10;99.90
23550;DHT22;11953;49.010;8.608;2022-09-09T16:48:32;19.30;99.90
23550;DHT22;11953;49.010;8.608;2022-09-09T16:51:21;19.20;99.90
23550;DHT22;11953;49.010;8.608;2022-09-09T16:54:09;19.30;99.90
23550;DHT22;11953;49.010;8.608;2022-09-09T16:56:56;19.40;99.90
23550;DHT22;11953;49.010;8.608;2022-09-09T16:59:43;19.50;99.90
23550;DHT22;11953;49.010;8.608;2022-09-09T17:02:32;19.50;99.90
23550;DHT22;11953;49.010;8.608;2022-09-09T17:05:21;19.50;99.90
23550;DHT22;11953;49.010;8.608;2022-09-09T17:08:08;19.50;99.90
23550;DHT22;11953;49.010;8.608;2022-09-09T17:10:55;19.50;99.90
23550;DHT22;11953;49.010;8.608;2022-09-09T17:13:42;19.60;99.90
23550;DHT22;11953;49.010;8.608;2022-09-09T17:16:31;19.70;99.90
23550;DHT22;11953;49.010;8.608;2022-09-09T17:19:20;19.70;99.90
23550;DHT22;11953;49.010;8.608;2022-09-09T17:22:07;19.70;99.90
23550;DHT22;11953;49.010;8.608;2022-09-09T17:25:02;19.80;99.90
23550;DHT22;11953;49.010;8.608;2022-09-09T17:27:49;19.80;99.90
23550;DHT22;11953;49.010;8.608;2022-09-09T17:30:36;19.70;99.90
23550;DHT22;11953;49.010;8.608;2022-09-09T17:33:23;19.70;99.90
23550;DHT22;11953;49.010;8.608;2022-09-09T17:36:14;19.60;99.90
23550;DHT22;11953;49.010;8.608;2022-09-09T17:39:02;19.50;99.90
23550;DHT22;11953;49.010;8.608;2022-09-09T17:41:49;19.40;99.90
23550;DHT22;11953;49.010;8.608;2022-09-09T17:44:35;19.30;99.90
23550;DHT22;11953;49.010;8.608;2022-09-09T17:47:23;19.30;99.90
23550;DHT22;11953;49.010;8.608;2022-09-09T17:50:10;19.30;99.90
23550;DHT22;11953;49.010;8.608;2022-09-09T17:52:59;19.30;99.90
23550;DHT22;11953;49.010;8.608;2022-09-09T17:55:45;19.10;99.90
23550;DHT22;11953;49.010;8.608;2022-09-09T17:58:38;19.10;99.90
23550;DHT22;11953;49.010;8.608;2022-09-09T18:01:26;19.00;99.90